sensor_id;sensor_type;location;lat;lon;timestamp;pressure;altitude;pressure_sealevel;temperature;humidity
76132;BME280;64877;50.994;13.650;2023-04-07T00:02:01;99912.00;;;1.70;65.76
76132;BME280;64877;50.994;13.650;2023-04-07T00:04:27;99898.53;;;1.73;65.97
76132;BME280;64877;50.994;13.650;2023-04-07T00:06:52;99899.91;;;1.37;67.37
76132;BME280;64877;50.994;13.650;2023-04-07T00:09:17;99900.53;;;1.45;66.73
76132;BME280;64877;50.994;13.650;2023-04-07T00:11:43;99899.28;;;1.53;66.90
76132;BME280;64877;50.994;13.650;2023-04-07T00:14:08;99897.50;;;1.54;66.99
76132;BME280;64877;50.994;13.650;2023-04-07T00:16:34;99903.03;;;1.24;68.11
76132;BME280;64877;50.994;13.650;2023-04-07T00:18:59;99905.16;;;1.15;68.51
76132;BME280;64877;50.994;13.650;2023-04-07T00:21:24;99901.56;;;1.16;68.58
76132;BME280;64877;50.994;13.650;2023-04-07T00:23:51;99906.72;;;1.20;68.60
76132;BME280;64877;50.994;13.650;2023-04-07T00:26:16;99907.44;;;0.99;68.56
76132;BME280;64877;50.994;13.650;2023-04-07T00:28:42;99903.44;;;0.87;69.14
76132;BME280;64877;50.994;13.650;2023-04-07T00:31:07;99905.22;;;0.87;69.82
76132;BME280;64877;50.994;13.650;2023-04-07T00:33:32;99907.16;;;0.82;70.06
76132;BME280;64877;50.994;13.650;2023-04-07T00:35:58;99907.06;;;0.58;71.02
76132;BME280;64877;50.994;13.650;2023-04-07T00:38:23;99905.84;;;0.68;70.46
76132;BME280;64877;50.994;13.650;2023-04-07T00:40:49;99891.84;;;0.63;70.26
76132;BME280;64877;50.994;13.650;2023-04-07T00:43:14;99893.97;;;0.52;70.81
76132;BME280;64877;50.994;13.650;2023-04-07T00:45:40;99892.34;;;0.48;71.00
76132;BME280;64877;50.994;13.650;2023-04-07T00:48:06;99897.09;;;0.38;71.06
76132;BME280;64877;50.994;13.650;2023-04-07T00:50:31;99892.47;;;0.45;71.48
76132;BME280;64877;50.994;13.650;2023-04-07T00:52:57;99893.19;;;0.50;70.70
76132;BME280;64877;50.994;13.650;2023-04-07T00:55:22;99887.25;;;0.42;71.41
76132;BME280;64877;50.994;13.650;2023-04-07T00:57:48;99883.16;;;0.32;71.28
76132;BME280;64877;50.994;13.650;2023-04-07T01:00:13;99885.38;;;0.44;71.08
76132;BME280;64877;50.994;13.650;2023-04-07T01:02:48;99877.13;;;0.27;71.92
76132;BME280;64877;50.994;13.650;2023-04-07T01:05:31;99877.56;;;0.39;71.52
76132;BME280;64877;50.994;13.650;2023-04-07T01:14:00;99863.25;;;0.45;71.05
76132;BME280;64877;50.994;13.650;2023-04-07T01:16:29;99862.50;;;0.40;70.83
76132;BME280;64877;50.994;13.650;2023-04-07T01:19:09;99865.13;;;0.41;70.88
76132;BME280;64877;50.994;13.650;2023-04-07T01:21:39;99864.34;;;0.38;70.51
76132;BME280;64877;50.994;13.650;2023-04-07T01:26:39;99853.81;;;0.35;70.86
76132;BME280;64877;50.994;13.650;2023-04-07T01:31:49;99856.97;;;0.19;71.08
76132;BME280;64877;50.994;13.650;2023-04-07T01:34:16;99855.19;;;0.20;71.30
76132;BME280;64877;50.994;13.650;2023-04-07T01:36:42;99855.50;;;0.11;71.42
76132;BME280;64877;50.994;13.650;2023-04-07T01:39:10;99853.72;;;0.10;72.24
76132;BME280;64877;50.994;13.650;2023-04-07T01:41:37;99848.78;;;-0.01;71.57
76132;BME280;64877;50.994;13.650;2023-04-07T01:44:08;99853.06;;;0.03;72.43
76132;BME280;64877;50.994;13.650;2023-04-07T01:46:33;99857.28;;;0.10;71.31
76132;BME280;64877;50.994;13.650;2023-04-07T01:48:59;99859.44;;;0.25;71.52
76132;BME280;64877;50.994;13.650;2023-04-07T01:51:27;99854.44;;;0.16;71.93
76132;BME280;64877;50.994;13.650;2023-04-07T01:53:55;99851.91;;;0.12;71.25
76132;BME280;64877;50.994;13.650;2023-04-07T01:56:21;99852.06;;;0.34;71.15
76132;BME280;64877;50.994;13.650;2023-04-07T01:58:46;99853.09;;;0.30;70.43
76132;BME280;64877;50.994;13.650;2023-04-07T02:01:12;99853.63;;;0.41;70.56
76132;BME280;64877;50.994;13.650;2023-04-07T02:04:01;99848.41;;;0.38;70.49
76132;BME280;64877;50.994;13.650;2023-04-07T02:06:34;99853.78;;;0.36;70.39
76132;BME280;64877;50.994;13.650;2023-04-07T02:09:06;99855.16;;;0.21;70.60
76132;BME280;64877;50.994;13.650;2023-04-07T02:11:33;99842.06;;;0.15;71.55
76132;BME280;64877;50.994;13.650;2023-04-07T02:14:01;99843.22;;;0.07;71.18
76132;BME280;64877;50.994;13.650;2023-04-07T02:16:30;99841.00;;;0.21;71.00
76132;BME280;64877;50.994;13.650;2023-04-07T02:18:57;99841.00;;;0.21;70.50
76132;BME280;64877;50.994;13.650;2023-04-07T02:21:24;99831.97;;;0.27;70.46
76132;BME280;64877;50.994;13.650;2023-04-07T02:23:51;99834.28;;;0.09;70.92
76132;BME280;64877;50.994;13.650;2023-04-07T02:26:16;99829.53;;;0.20;70.51
76132;BME280;64877;50.994;13.650;2023-04-07T02:28:42;99834.56;;;0.28;70.40
76132;BME280;64877;50.994;13.650;2023-04-07T02:31:07;99825.81;;;0.24;70.00
76132;BME280;64877;50.994;13.650;2023-04-07T02:33:33;99829.59;;;0.17;70.94
76132;BME280;64877;50.994;13.650;2023-04-07T02:35:58;99824.09;;;0.23;69.94
76132;BME280;64877;50.994;13.650;2023-04-07T02:38:23;99832.50;;;0.10;70.31
76132;BME280;64877;50.994;13.650;2023-04-07T02:40:49;99826.03;;;0.18;69.94
76132;BME280;64877;50.994;13.650;2023-04-07T02:43:15;99824.88;;;-0.01;71.16
76132;BME280;64877;50.994;13.650;2023-04-07T02:45:42;99824.09;;;0.23;69.91
76132;BME280;64877;50.994;13.650;2023-04-07T02:48:07;99822.78;;;0.10;70.70
76132;BME280;64877;50.994;13.650;2023-04-07T02:50:32;99824.06;;;-0.03;71.10
76132;BME280;64877;50.994;13.650;2023-04-07T02:52:58;99827.69;;;-0.06;71.66
76132;BME280;64877;50.994;13.650;2023-04-07T02:55:23;99824.28;;;-0.09;70.79
76132;BME280;64877;50.994;13.650;2023-04-07T02:57:48;99809.97;;;-0.05;70.67
76132;BME280;64877;50.994;13.650;2023-04-07T03:00:15;99816.03;;;0.00;70.87
76132;BME280;64877;50.994;13.650;2023-04-07T03:02:40;99819.97;;;-0.13;71.14
76132;BME280;64877;50.994;13.650;2023-04-07T03:05:06;99822.63;;;-0.13;71.03
76132;BME280;64877;50.994;13.650;2023-04-07T03:07:31;99820.78;;;-0.11;70.93
76132;BME280;64877;50.994;13.650;2023-04-07T03:09:56;99817.63;;;0.04;70.75
76132;BME280;64877;50.994;13.650;2023-04-07T03:12:22;99812.59;;;-0.04;71.07
76132;BME280;64877;50.994;13.650;2023-04-07T03:14:47;99807.78;;;-0.20;71.49
76132;BME280;64877;50.994;13.650;2023-04-07T03:17:13;99812.97;;;-0.44;71.82
76132;BME280;64877;50.994;13.650;2023-04-07T03:19:39;99812.59;;;-0.61;72.70
76132;BME280;64877;50.994;13.650;2023-04-07T03:22:05;99812.91;;;-0.72;73.75
76132;BME280;64877;50.994;13.650;2023-04-07T03:24:30;99808.00;;;-0.55;73.30
76132;BME280;64877;50.994;13.650;2023-04-07T03:26:55;99796.13;;;-0.43;72.59
76132;BME280;64877;50.994;13.650;2023-04-07T03:29:21;99801.03;;;-0.31;71.90
76132;BME280;64877;50.994;13.650;2023-04-07T03:31:46;99796.31;;;-0.49;72.87
76132;BME280;64877;50.994;13.650;2023-04-07T03:34:12;99802.63;;;-0.53;72.59
76132;BME280;64877;50.994;13.650;2023-04-07T03:36:37;99800.97;;;-0.28;72.49
76132;BME280;64877;50.994;13.650;2023-04-07T03:39:03;99802.88;;;-0.33;72.31
76132;BME280;64877;50.994;13.650;2023-04-07T03:41:28;99803.34;;;-0.48;72.59
76132;BME280;64877;50.994;13.650;2023-04-07T03:43:53;99797.06;;;-0.44;72.42
76132;BME280;64877;50.994;13.650;2023-04-07T03:46:19;99796.13;;;-0.43;72.63
76132;BME280;64877;50.994;13.650;2023-04-07T03:48:45;99798.38;;;-0.31;72.02
76132;BME280;64877;50.994;13.650;2023-04-07T03:51:11;99799.97;;;-0.25;71.41
76132;BME280;64877;50.994;13.650;2023-04-07T03:53:36;99801.34;;;-0.12;70.70
76132;BME280;64877;50.994;13.650;2023-04-07T03:56:02;99800.19;;;-0.03;70.04
76132;BME280;64877;50.994;13.650;2023-04-07T03:58:28;99801.72;;;0.04;69.95
76132;BME280;64877;50.994;13.650;2023-04-07T04:00:53;99807.06;;;-0.24;71.61
76132;BME280;64877;50.994;13.650;2023-04-07T04:03:18;99809.34;;;-0.41;71.54
76132;BME280;64877;50.994;13.650;2023-04-07T04:05:44;99809.84;;;-0.58;72.74
76132;BME280;64877;50.994;13.650;2023-04-07T04:08:09;99808.13;;;-0.59;72.82
76132;BME280;64877;50.994;13.650;2023-04-07T04:10:35;99808.94;;;-0.57;73.02
76132;BME280;64877;50.994;13.650;2023-04-07T04:13:00;99805.09;;;-0.47;73.10
76132;BME280;64877;50.994;13.650;2023-04-07T04:15:27;99802.81;;;-0.59;72.36
76132;BME280;64877;50.994;13.650;2023-04-07T04:17:53;99804.16;;;-0.46;73.07
76132;BME280;64877;50.994;13.650;2023-04-07T04:20:19;99806.81;;;-0.46;72.36
76132;BME280;64877;50.994;13.650;2023-04-07T04:22:46;99806.94;;;-0.49;72.56
76132;BME280;64877;50.994;13.650;2023-04-07T04:25:11;99809.13;;;-0.63;72.75
76132;BME280;64877;50.994;13.650;2023-04-07T04:27:37;99810.25;;;-0.72;73.00
76132;BME280;64877;50.994;13.650;2023-04-07T04:30:02;99805.41;;;-0.58;72.56
76132;BME280;64877;50.994;13.650;2023-04-07T04:32:28;99808.59;;;-0.46;73.02
76132;BME280;64877;50.994;13.650;2023-04-07T04:34:53;99818.41;;;-0.48;72.71
76132;BME280;64877;50.994;13.650;2023-04-07T04:37:19;99809.47;;;-0.46;72.67
76132;BME280;64877;50.994;13.650;2023-04-07T04:39:44;99805.22;;;-0.52;72.15
76132;BME280;64877;50.994;13.650;2023-04-07T04:42:10;99804.16;;;-0.44;72.46
76132;BME280;64877;50.994;13.650;2023-04-07T04:44:36;99806.19;;;-0.24;71.57
76132;BME280;64877;50.994;13.650;2023-04-07T04:47:01;99808.56;;;-0.45;72.14
76132;BME280;64877;50.994;13.650;2023-04-07T04:49:27;99802.25;;;-0.41;72.29
76132;BME280;64877;50.994;13.650;2023-04-07T04:51:52;99808.00;;;-0.27;71.33
76132;BME280;64877;50.994;13.650;2023-04-07T04:54:18;99806.50;;;-0.35;71.88
76132;BME280;64877;50.994;13.650;2023-04-07T04:56:43;99808.19;;;-0.33;72.14
76132;BME280;64877;50.994;13.650;2023-04-07T04:59:08;99804.91;;;-0.41;72.17
76132;BME280;64877;50.994;13.650;2023-04-07T05:01:34;99806.75;;;-0.43;72.20
76132;BME280;64877;50.994;13.650;2023-04-07T05:03:59;99802.97;;;-0.36;72.59
76132;BME280;64877;50.994;13.650;2023-04-07T05:06:25;99802.31;;;-0.14;71.24
76132;BME280;64877;50.994;13.650;2023-04-07T05:08:51;99806.06;;;-0.21;71.21
76132;BME280;64877;50.994;13.650;2023-04-07T05:11:17;99797.31;;;-0.23;71.04
76132;BME280;64877;50.994;13.650;2023-04-07T05:13:42;99808.78;;;-0.23;71.35
76132;BME280;64877;50.994;13.650;2023-04-07T05:16:08;99807.72;;;-0.17;71.60
76132;BME280;64877;50.994;13.650;2023-04-07T05:18:33;99802.41;;;-0.17;71.46
76132;BME280;64877;50.994;13.650;2023-04-07T05:20:58;99808.00;;;0.02;71.19
76132;BME280;64877;50.994;13.650;2023-04-07T05:23:25;99803.84;;;-0.07;71.16
76132;BME280;64877;50.994;13.650;2023-04-07T05:25:51;99802.56;;;0.05;70.62
76132;BME280;64877;50.994;13.650;2023-04-07T05:28:16;99808.56;;;0.11;70.47
76132;BME280;64877;50.994;13.650;2023-04-07T05:30:42;99809.50;;;0.37;70.46
76132;BME280;64877;50.994;13.650;2023-04-07T05:33:07;99803.09;;;0.42;69.46
76132;BME280;64877;50.994;13.650;2023-04-07T05:35:32;99806.31;;;0.52;69.92
76132;BME280;64877;50.994;13.650;2023-04-07T05:37:58;99794.91;;;0.75;68.58
76132;BME280;64877;50.994;13.650;2023-04-07T05:40:23;99795.53;;;0.82;67.90
76132;BME280;64877;50.994;13.650;2023-04-07T05:42:49;99796.72;;;0.98;68.04
76132;BME280;64877;50.994;13.650;2023-04-07T05:45:15;99790.03;;;1.11;67.74
76132;BME280;64877;50.994;13.650;2023-04-07T05:47:40;99790.38;;;1.25;67.05
76132;BME280;64877;50.994;13.650;2023-04-07T05:50:06;99790.25;;;1.52;66.48
76132;BME280;64877;50.994;13.650;2023-04-07T05:52:32;99786.19;;;1.87;65.01
76132;BME280;64877;50.994;13.650;2023-04-07T05:54:57;99787.53;;;2.41;63.99
76132;BME280;64877;50.994;13.650;2023-04-07T05:57:23;99785.72;;;2.42;62.48
76132;BME280;64877;50.994;13.650;2023-04-07T05:59:48;99791.22;;;1.95;64.40
76132;BME280;64877;50.994;13.650;2023-04-07T06:02:14;99788.03;;;1.63;64.56
76132;BME280;64877;50.994;13.650;2023-04-07T06:04:39;99783.31;;;1.48;65.33
76132;BME280;64877;50.994;13.650;2023-04-07T06:07:05;99783.59;;;1.17;67.15
76132;BME280;64877;50.994;13.650;2023-04-07T06:09:31;99789.09;;;1.12;67.56
76132;BME280;64877;50.994;13.650;2023-04-07T06:11:56;99788.66;;;0.99;67.86
76132;BME280;64877;50.994;13.650;2023-04-07T06:14:21;99786.19;;;1.18;66.69
76132;BME280;64877;50.994;13.650;2023-04-07T06:16:47;99794.88;;;1.00;67.62
76132;BME280;64877;50.994;13.650;2023-04-07T06:19:12;99790.72;;;1.16;67.48
76132;BME280;64877;50.994;13.650;2023-04-07T06:21:37;99789.03;;;1.37;66.39
76132;BME280;64877;50.994;13.650;2023-04-07T06:24:04;99786.19;;;1.87;65.98
76132;BME280;64877;50.994;13.650;2023-04-07T06:26:29;99781.41;;;2.39;63.56
76132;BME280;64877;50.994;13.650;2023-04-07T06:28:56;99778.00;;;2.76;62.47
76132;BME280;64877;50.994;13.650;2023-04-07T06:31:22;99773.56;;;3.16;61.94
76132;BME280;64877;50.994;13.650;2023-04-07T06:33:47;99774.09;;;3.81;60.24
76132;BME280;64877;50.994;13.650;2023-04-07T06:36:13;99770.53;;;4.53;58.15
76132;BME280;64877;50.994;13.650;2023-04-07T06:38:38;99760.25;;;5.13;56.82
76132;BME280;64877;50.994;13.650;2023-04-07T06:41:03;99772.59;;;5.64;54.42
76132;BME280;64877;50.994;13.650;2023-04-07T06:43:29;99766.16;;;6.30;52.07
76132;BME280;64877;50.994;13.650;2023-04-07T06:45:55;99757.59;;;6.39;50.87
76132;BME280;64877;50.994;13.650;2023-04-07T06:48:21;99760.53;;;6.65;50.92
76132;BME280;64877;50.994;13.650;2023-04-07T06:50:50;99748.56;;;6.70;51.30
76132;BME280;64877;50.994;13.650;2023-04-07T06:53:16;99749.50;;;7.28;50.09
76132;BME280;64877;50.994;13.650;2023-04-07T06:55:42;99741.81;;;7.50;48.46
76132;BME280;64877;50.994;13.650;2023-04-07T06:58:07;99744.69;;;7.62;47.85
76132;BME280;64877;50.994;13.650;2023-04-07T07:00:32;99742.34;;;7.70;47.77
76132;BME280;64877;50.994;13.650;2023-04-07T07:02:58;99734.69;;;8.32;47.01
76132;BME280;64877;50.994;13.650;2023-04-07T07:05:23;99735.03;;;8.40;46.62
76132;BME280;64877;50.994;13.650;2023-04-07T07:07:49;99731.84;;;8.48;45.41
76132;BME280;64877;50.994;13.650;2023-04-07T07:10:15;99736.38;;;8.47;45.34
76132;BME280;64877;50.994;13.650;2023-04-07T07:12:41;99731.28;;;9.21;44.62
76132;BME280;64877;50.994;13.650;2023-04-07T07:15:07;99729.81;;;9.53;43.62
76132;BME280;64877;50.994;13.650;2023-04-07T07:17:33;99735.19;;;10.03;42.31
76132;BME280;64877;50.994;13.650;2023-04-07T07:19:58;99732.13;;;10.44;41.61
76132;BME280;64877;50.994;13.650;2023-04-07T07:22:23;99734.81;;;10.44;40.84
76132;BME280;64877;50.994;13.650;2023-04-07T07:24:49;99726.28;;;10.61;40.22
76132;BME280;64877;50.994;13.650;2023-04-07T07:27:15;99732.19;;;10.67;40.06
76132;BME280;64877;50.994;13.650;2023-04-07T07:29:41;99734.19;;;10.76;39.33
76132;BME280;64877;50.994;13.650;2023-04-07T07:32:06;99735.28;;;10.73;39.06
76132;BME280;64877;50.994;13.650;2023-04-07T07:34:32;99730.34;;;11.25;39.35
76132;BME280;64877;50.994;13.650;2023-04-07T07:36:57;99729.00;;;11.30;38.32
76132;BME280;64877;50.994;13.650;2023-04-07T07:39:24;99729.13;;;11.29;37.83
76132;BME280;64877;50.994;13.650;2023-04-07T07:41:50;99735.03;;;11.34;37.41
76132;BME280;64877;50.994;13.650;2023-04-07T07:44:15;99745.53;;;11.03;37.84
76132;BME280;64877;50.994;13.650;2023-04-07T07:46:40;99748.84;;;10.84;39.41
76132;BME280;64877;50.994;13.650;2023-04-07T07:49:06;99740.44;;;10.76;39.59
76132;BME280;64877;50.994;13.650;2023-04-07T07:51:31;99744.66;;;10.45;40.22
76132;BME280;64877;50.994;13.650;2023-04-07T07:53:56;99747.34;;;10.08;41.25
76132;BME280;64877;50.994;13.650;2023-04-07T07:56:22;99751.28;;;10.04;41.34
76132;BME280;64877;50.994;13.650;2023-04-07T07:58:48;99756.31;;;10.09;41.86
76132;BME280;64877;50.994;13.650;2023-04-07T08:01:13;99755.97;;;10.26;41.92
76132;BME280;64877;50.994;13.650;2023-04-07T08:03:38;99747.72;;;10.52;40.12
76132;BME280;64877;50.994;13.650;2023-04-07T08:06:04;99747.03;;;11.07;38.86
76132;BME280;64877;50.994;13.650;2023-04-07T08:08:30;99746.09;;;11.42;38.36
76132;BME280;64877;50.994;13.650;2023-04-07T08:10:55;99743.38;;;11.53;36.80
76132;BME280;64877;50.994;13.650;2023-04-07T08:13:21;99752.00;;;11.70;36.98
76132;BME280;64877;50.994;13.650;2023-04-07T08:15:46;99747.69;;;11.67;34.90
76132;BME280;64877;50.994;13.650;2023-04-07T08:18:12;99742.75;;;11.83;35.39
76132;BME280;64877;50.994;13.650;2023-04-07T08:20:37;99752.91;;;11.01;36.69
76132;BME280;64877;50.994;13.650;2023-04-07T08:23:02;99757.50;;;10.77;38.02
76132;BME280;64877;50.994;13.650;2023-04-07T08:25:29;99753.19;;;10.39;36.67
76132;BME280;64877;50.994;13.650;2023-04-07T08:27:54;99764.19;;;10.25;36.71
76132;BME280;64877;50.994;13.650;2023-04-07T08:30:19;99767.69;;;9.65;37.37
76132;BME280;64877;50.994;13.650;2023-04-07T08:32:46;99767.03;;;9.48;37.82
76132;BME280;64877;50.994;13.650;2023-04-07T08:35:11;99773.28;;;9.23;38.77
76132;BME280;64877;50.994;13.650;2023-04-07T08:37:38;99772.44;;;8.97;38.70
76132;BME280;64877;50.994;13.650;2023-04-07T08:40:05;99778.44;;;8.75;38.95
76132;BME280;64877;50.994;13.650;2023-04-07T08:42:32;99778.44;;;8.75;39.29
76132;BME280;64877;50.994;13.650;2023-04-07T08:45:03;99776.28;;;8.80;39.08
76132;BME280;64877;50.994;13.650;2023-04-07T08:47:34;99767.66;;;8.75;39.54
76132;BME280;64877;50.994;13.650;2023-04-07T08:50:02;99760.34;;;8.77;39.93
76132;BME280;64877;50.994;13.650;2023-04-07T08:52:51;99767.66;;;8.75;40.47
76132;BME280;64877;50.994;13.650;2023-04-07T08:55:17;99761.63;;;8.72;40.28
76132;BME280;64877;50.994;13.650;2023-04-07T08:57:43;99762.59;;;8.71;40.52
76132;BME280;64877;50.994;13.650;2023-04-07T09:00:09;99757.44;;;8.80;41.61
76132;BME280;64877;50.994;13.650;2023-04-07T09:02:39;99763.47;;;8.84;40.54
76132;BME280;64877;50.994;13.650;2023-04-07T09:05:07;99767.97;;;8.84;41.43
76132;BME280;64877;50.994;13.650;2023-04-07T09:07:34;99768.19;;;8.68;40.96
76132;BME280;64877;50.994;13.650;2023-04-07T09:10:00;99765.69;;;8.65;41.53
76132;BME280;64877;50.994;13.650;2023-04-07T09:12:29;99759.25;;;8.67;41.40
76132;BME280;64877;50.994;13.650;2023-04-07T09:14:55;99765.06;;;8.74;41.12
76132;BME280;64877;50.994;13.650;2023-04-07T09:17:21;99762.84;;;8.80;41.28
76132;BME280;64877;50.994;13.650;2023-04-07T09:19:47;99760.66;;;8.73;40.67
76132;BME280;64877;50.994;13.650;2023-04-07T09:22:13;99760.75;;;8.71;40.79
76132;BME280;64877;50.994;13.650;2023-04-07T09:24:40;99756.03;;;8.88;41.29
76132;BME280;64877;50.994;13.650;2023-04-07T09:27:12;99753.56;;;8.97;40.77
76132;BME280;64877;50.994;13.650;2023-04-07T09:29:40;99754.66;;;9.07;40.49
76132;BME280;64877;50.994;13.650;2023-04-07T09:32:07;99752.63;;;9.11;40.28
76132;BME280;64877;50.994;13.650;2023-04-07T09:34:35;99756.28;;;9.10;39.56
76132;BME280;64877;50.994;13.650;2023-04-07T09:37:02;99751.97;;;9.07;39.44
76132;BME280;64877;50.994;13.650;2023-04-07T09:39:27;99749.59;;;9.03;39.23
76132;BME280;64877;50.994;13.650;2023-04-07T09:41:54;99746.47;;;8.96;40.29
76132;BME280;64877;50.994;13.650;2023-04-07T09:44:20;99742.69;;;9.12;40.59
76132;BME280;64877;50.994;13.650;2023-04-07T09:46:56;99748.94;;;8.99;39.89
76132;BME280;64877;50.994;13.650;2023-04-07T09:49:25;99748.94;;;8.99;39.87
76132;BME280;64877;50.994;13.650;2023-04-07T09:52:11;99740.84;;;8.99;39.83
76132;BME280;64877;50.994;13.650;2023-04-07T09:54:40;99736.88;;;8.92;40.19
76132;BME280;64877;50.994;13.650;2023-04-07T09:57:10;99743.53;;;8.99;40.40
76132;BME280;64877;50.994;13.650;2023-04-07T09:59:37;99750.88;;;8.97;40.74
76132;BME280;64877;50.994;13.650;2023-04-07T10:02:04;99747.00;;;9.01;40.30
76132;BME280;64877;50.994;13.650;2023-04-07T10:04:30;99742.06;;;8.95;40.96
76132;BME280;64877;50.994;13.650;2023-04-07T10:06:57;99756.91;;;8.88;40.41
76132;BME280;64877;50.994;13.650;2023-04-07T10:09:27;99745.25;;;8.88;40.63
76132;BME280;64877;50.994;13.650;2023-04-07T10:11:54;99753.13;;;8.78;40.84
76132;BME280;64877;50.994;13.650;2023-04-07T10:14:22;99744.84;;;8.94;40.90
76132;BME280;64877;50.994;13.650;2023-04-07T10:16:49;99742.78;;;8.97;40.72
76132;BME280;64877;50.994;13.650;2023-04-07T10:19:16;99741.41;;;8.92;40.38
76132;BME280;64877;50.994;13.650;2023-04-07T10:21:43;99746.91;;;8.90;40.96
76132;BME280;64877;50.994;13.650;2023-04-07T10:24:23;99745.38;;;8.86;41.36
76132;BME280;64877;50.994;13.650;2023-04-07T10:26:58;99750.78;;;8.86;41.13
76132;BME280;64877;50.994;13.650;2023-04-07T10:29:28;99737.84;;;9.04;42.94
76132;BME280;64877;50.994;13.650;2023-04-07T10:31:55;99738.16;;;9.12;41.48
76132;BME280;64877;50.994;13.650;2023-04-07T10:37:22;99738.81;;;9.16;39.00
76132;BME280;64877;50.994;13.650;2023-04-07T10:39:49;99740.75;;;9.14;38.98
76132;BME280;64877;50.994;13.650;2023-04-07T10:42:53;99739.56;;;9.18;39.01
76132;BME280;64877;50.994;13.650;2023-04-07T10:48:11;99737.31;;;9.12;38.47
76132;BME280;64877;50.994;13.650;2023-04-07T10:50:37;99733.63;;;9.13;38.33
76132;BME280;64877;50.994;13.650;2023-04-07T10:53:10;99738.25;;;9.23;38.64
76132;BME280;64877;50.994;13.650;2023-04-07T10:55:40;99734.50;;;9.13;38.39
76132;BME280;64877;50.994;13.650;2023-04-07T10:58:25;99736.97;;;9.29;39.08
76132;BME280;64877;50.994;13.650;2023-04-07T11:03:22;99736.84;;;9.43;38.73
76132;BME280;64877;50.994;13.650;2023-04-07T11:05:48;99740.06;;;9.48;38.64
76132;BME280;64877;50.994;13.650;2023-04-07T11:08:14;99735.13;;;9.55;38.36
76132;BME280;64877;50.994;13.650;2023-04-07T11:10:39;99733.16;;;9.57;37.92
76132;BME280;64877;50.994;13.650;2023-04-07T11:13:11;99731.00;;;9.49;37.88
76132;BME280;64877;50.994;13.650;2023-04-07T11:15:37;99733.81;;;9.48;37.49
76132;BME280;64877;50.994;13.650;2023-04-07T11:18:19;99734.47;;;9.39;38.01
76132;BME280;64877;50.994;13.650;2023-04-07T11:20:53;99732.44;;;9.42;38.44
76132;BME280;64877;50.994;13.650;2023-04-07T11:23:21;99726.47;;;9.63;38.07
76132;BME280;64877;50.994;13.650;2023-04-07T11:25:49;99732.25;;;9.69;37.80
76132;BME280;64877;50.994;13.650;2023-04-07T11:28:15;99734.63;;;9.74;37.64
76132;BME280;64877;50.994;13.650;2023-04-07T11:30:46;99723.41;;;9.80;37.70
76132;BME280;64877;50.994;13.650;2023-04-07T11:33:15;99736.91;;;9.80;37.89
76132;BME280;64877;50.994;13.650;2023-04-07T11:35:49;99730.09;;;9.74;36.95
76132;BME280;64877;50.994;13.650;2023-04-07T11:38:15;99733.22;;;9.81;37.98
76132;BME280;64877;50.994;13.650;2023-04-07T11:40:41;99729.53;;;9.82;36.86
76132;BME280;64877;50.994;13.650;2023-04-07T11:43:16;99729.22;;;9.74;37.10
76132;BME280;64877;50.994;13.650;2023-04-07T11:45:43;99722.53;;;9.79;37.07
76132;BME280;64877;50.994;13.650;2023-04-07T11:48:28;99719.56;;;9.58;37.09
76132;BME280;64877;50.994;13.650;2023-04-07T11:50:53;99718.03;;;9.67;37.48
76132;BME280;64877;50.994;13.650;2023-04-07T11:53:32;99715.41;;;9.78;37.04
76132;BME280;64877;50.994;13.650;2023-04-07T11:58:24;99721.63;;;9.92;37.03
76132;BME280;64877;50.994;13.650;2023-04-07T12:00:57;99724.00;;;9.96;37.33
76132;BME280;64877;50.994;13.650;2023-04-07T12:03:23;99721.16;;;9.98;37.18
76132;BME280;64877;50.994;13.650;2023-04-07T12:05:49;99721.56;;;9.80;37.11
76132;BME280;64877;50.994;13.650;2023-04-07T12:08:14;99719.06;;;9.90;37.78
76132;BME280;64877;50.994;13.650;2023-04-07T12:10:41;99714.13;;;10.08;36.96
76132;BME280;64877;50.994;13.650;2023-04-07T12:13:07;99720.38;;;10.08;37.14
76132;BME280;64877;50.994;13.650;2023-04-07T12:15:33;99717.28;;;10.02;37.56
76132;BME280;64877;50.994;13.650;2023-04-07T12:17:58;99719.59;;;9.95;38.05
76132;BME280;64877;50.994;13.650;2023-04-07T12:20:24;99714.72;;;9.88;38.53
76132;BME280;64877;50.994;13.650;2023-04-07T12:22:49;99715.13;;;9.94;38.15
76132;BME280;64877;50.994;13.650;2023-04-07T12:25:15;99711.06;;;9.89;38.51
76132;BME280;64877;50.994;13.650;2023-04-07T12:27:41;99715.25;;;9.93;38.78
76132;BME280;64877;50.994;13.650;2023-04-07T12:30:06;99709.53;;;9.97;38.01
76132;BME280;64877;50.994;13.650;2023-04-07T12:32:34;99715.75;;;10.10;37.91
76132;BME280;64877;50.994;13.650;2023-04-07T12:35:03;99710.06;;;10.50;40.03
76132;BME280;64877;50.994;13.650;2023-04-07T12:37:30;99712.31;;;10.68;40.04
76132;BME280;64877;50.994;13.650;2023-04-07T12:39:57;99710.88;;;10.75;37.51
76132;BME280;64877;50.994;13.650;2023-04-07T12:42:23;99706.31;;;10.75;36.64
76132;BME280;64877;50.994;13.650;2023-04-07T12:44:48;99710.88;;;10.75;36.51
76132;BME280;64877;50.994;13.650;2023-04-07T12:47:13;99710.97;;;10.73;36.19
76132;BME280;64877;50.994;13.650;2023-04-07T12:49:40;99704.16;;;10.45;36.84
76132;BME280;64877;50.994;13.650;2023-04-07T12:52:06;99710.09;;;10.61;37.90
76132;BME280;64877;50.994;13.650;2023-04-07T12:54:32;99697.09;;;10.67;38.40
76132;BME280;64877;50.994;13.650;2023-04-07T12:56:57;99695.53;;;10.86;38.25
76132;BME280;64877;50.994;13.650;2023-04-07T12:59:24;99702.56;;;10.89;37.21
76132;BME280;64877;50.994;13.650;2023-04-07T13:01:49;99701.22;;;10.95;37.61
76132;BME280;64877;50.994;13.650;2023-04-07T13:04:15;99700.84;;;10.99;37.63
76132;BME280;64877;50.994;13.650;2023-04-07T13:06:42;99703.91;;;10.95;37.11
76132;BME280;64877;50.994;13.650;2023-04-07T13:09:07;99701.66;;;10.88;36.36
76132;BME280;64877;50.994;13.650;2023-04-07T13:11:33;99706.91;;;10.79;37.90
76132;BME280;64877;50.994;13.650;2023-04-07T13:13:58;99705.22;;;10.78;37.23
76132;BME280;64877;50.994;13.650;2023-04-07T13:16:24;99709.13;;;10.74;37.74
76132;BME280;64877;50.994;13.650;2023-04-07T13:18:50;99705.06;;;10.68;37.77